createdAt,value
2023-07-06T00:00:23.367Z,94.19
2023-07-06T00:01:23.351Z,94.29
2023-07-06T00:02:23.362Z,94.19
2023-07-06T00:03:23.313Z,94.09
2023-07-06T00:04:23.306Z,94.09
2023-07-06T00:05:23.292Z,93.99
2023-07-06T00:06:23.271Z,93.99
2023-07-06T00:07:23.249Z,93.68
2023-07-06T00:08:23.249Z,93.68
2023-07-06T00:09:23.230Z,93.78
2023-07-06T00:10:23.250Z,93.88
2023-07-06T00:11:23.210Z,93.78
2023-07-06T00:12:23.201Z,93.83
2023-07-06T00:13:23.203Z,93.83
2023-07-06T00:14:23.170Z,93.73
2023-07-06T00:15:23.150Z,93.52
2023-07-06T00:16:23.183Z,93.52
2023-07-06T00:17:23.229Z,93.73
2023-07-06T00:18:23.157Z,93.73
2023-07-06T00:19:23.488Z,93.73
2023-07-06T00:20:23.086Z,93.73
2023-07-06T00:21:23.076Z,93.83
2023-07-06T00:22:23.085Z,94.03
2023-07-06T00:23:23.095Z,93.87
2023-07-06T00:24:23.040Z,93.97
2023-07-06T00:25:23.021Z,93.97
2023-07-06T00:26:23.011Z,94.07
2023-07-06T00:27:22.996Z,94.27
2023-07-06T00:28:23.001Z,94.27
2023-07-06T00:29:22.960Z,94.38
2023-07-06T00:30:22.968Z,94.27
2023-07-06T00:31:22.964Z,94.27
2023-07-06T00:32:22.953Z,94.27
2023-07-06T00:33:22.936Z,94.38
2023-07-06T00:34:22.943Z,94.48
2023-07-06T00:35:22.888Z,94.58
2023-07-06T00:36:22.888Z,94.68
2023-07-06T00:37:22.883Z,94.73
2023-07-06T00:38:22.935Z,94.73
2023-07-06T00:39:22.834Z,94.83
2023-07-06T00:40:22.866Z,94.73
2023-07-06T00:41:22.823Z,94.93
2023-07-06T00:42:22.814Z,94.83
2023-07-06T00:43:22.839Z,94.93
2023-07-06T00:44:22.807Z,94.93
2023-07-06T00:45:22.768Z,94.83
2023-07-06T00:46:22.831Z,94.73
2023-07-06T00:47:22.774Z,94.83
2023-07-06T00:48:22.752Z,94.93
2023-07-06T00:49:22.727Z,94.93
2023-07-06T00:50:22.727Z,94.87
2023-07-06T00:51:22.689Z,94.77
2023-07-06T00:52:22.691Z,94.87
2023-07-06T00:53:22.687Z,94.98
2023-07-06T00:54:22.658Z,94.98
2023-07-06T00:55:22.671Z,94.98
2023-07-06T00:56:22.634Z,94.87
2023-07-06T00:57:22.630Z,94.98
2023-07-06T00:58:22.610Z,95.07
2023-07-06T00:59:22.633Z,94.98
2023-07-06T01:00:22.618Z,94.98
2023-07-06T01:01:22.571Z,95.18
2023-07-06T01:02:22.586Z,95.28
2023-07-06T01:03:22.647Z,95.38
2023-07-06T01:04:22.556Z,95.48
2023-07-06T01:05:22.532Z,95.48
2023-07-06T01:06:22.494Z,95.48
2023-07-06T01:07:22.473Z,95.38
2023-07-06T01:08:22.472Z,95.28
2023-07-06T01:09:22.468Z,95.18
2023-07-06T01:10:22.519Z,95.38
2023-07-06T01:11:22.425Z,95.38
2023-07-06T01:12:22.447Z,95.48
2023-07-06T01:13:22.432Z,95.28
2023-07-06T01:14:22.389Z,95.28
2023-07-06T01:15:22.385Z,95.18
2023-07-06T01:16:22.428Z,95.18
2023-07-06T01:17:22.410Z,95.07
2023-07-06T01:18:22.344Z,94.98
2023-07-06T01:19:22.318Z,94.77
2023-07-06T01:20:22.332Z,94.98
2023-07-06T01:21:22.317Z,94.87
2023-07-06T01:22:22.280Z,94.77
2023-07-06T01:23:22.274Z,94.77
2023-07-06T01:24:22.264Z,94.87
2023-07-06T01:25:22.232Z,94.77
2023-07-06T01:26:22.239Z,94.87
2023-07-06T01:27:22.259Z,94.67
2023-07-06T01:28:22.222Z,94.82
2023-07-06T01:29:22.253Z,94.71
2023-07-06T01:30:22.187Z,94.77
2023-07-06T01:31:22.204Z,94.87
2023-07-06T01:32:22.243Z,94.87
2023-07-06T01:33:22.176Z,94.77
2023-07-06T01:34:22.221Z,94.46
2023-07-06T01:35:22.155Z,94.26
2023-07-06T01:36:22.107Z,94.37
2023-07-06T01:37:22.102Z,94.41
2023-07-06T01:38:22.075Z,94.51
2023-07-06T01:39:22.089Z,94.61
2023-07-06T01:40:22.042Z,94.61
2023-07-06T01:41:22.035Z,94.71
2023-07-06T01:42:22.033Z,94.82
2023-07-06T01:43:22.395Z,94.82
2023-07-06T01:44:22.000Z,94.82
2023-07-06T01:45:22.021Z,94.82
2023-07-06T01:46:21.997Z,94.71
2023-07-06T01:47:21.968Z,94.71
2023-07-06T01:48:21.942Z,94.82
2023-07-06T01:49:21.952Z,94.82
2023-07-06T01:50:21.951Z,94.82
2023-07-06T01:51:21.924Z,94.82
2023-07-06T01:52:21.907Z,94.82
2023-07-06T01:53:21.887Z,94.71
2023-07-06T01:54:21.937Z,94.61
2023-07-06T01:55:21.931Z,94.61
2023-07-06T01:56:21.845Z,94.61
2023-07-06T01:57:21.872Z,94.61
2023-07-06T01:58:21.833Z,94.71
2023-07-06T01:59:21.826Z,94.61
2023-07-06T02:00:21.823Z,94.66
2023-07-06T02:01:21.961Z,94.66
2023-07-06T02:02:21.913Z,94.66
2023-07-06T02:03:21.794Z,94.56
2023-07-06T02:04:21.883Z,94.45
2023-07-06T02:05:21.734Z,94.56
2023-07-06T02:06:21.728Z,94.45
2023-07-06T02:07:21.762Z,94.56
2023-07-06T02:08:21.698Z,94.56
2023-07-06T02:09:21.788Z,94.56
2023-07-06T02:10:21.688Z,94.66
2023-07-06T02:11:21.688Z,94.66
2023-07-06T02:12:21.659Z,94.66
2023-07-06T02:13:21.662Z,94.76
2023-07-06T02:14:21.618Z,94.66
2023-07-06T02:15:21.638Z,94.66
2023-07-06T02:16:21.658Z,94.76
2023-07-06T02:17:21.604Z,94.66
2023-07-06T02:18:21.568Z,94.66
2023-07-06T02:19:21.564Z,94.56
2023-07-06T02:20:21.568Z,94.50
2023-07-06T02:21:21.624Z,94.60
2023-07-06T02:22:21.522Z,94.50
2023-07-06T02:23:21.509Z,94.40
2023-07-06T02:24:21.491Z,94.45
2023-07-06T02:25:21.493Z,94.40
2023-07-06T02:26:21.480Z,94.40
2023-07-06T02:27:21.482Z,94.50
2023-07-06T02:28:22.163Z,94.40
2023-07-06T02:29:21.438Z,94.29
2023-07-06T02:30:21.394Z,94.29
2023-07-06T02:31:21.464Z,94.40
2023-07-06T02:32:21.477Z,94.29
2023-07-06T02:33:21.366Z,94.40
2023-07-06T02:34:21.340Z,94.40
2023-07-06T02:35:21.362Z,94.50
2023-07-06T02:36:21.338Z,94.50
2023-07-06T02:37:21.330Z,94.40
2023-07-06T02:38:21.349Z,94.29
2023-07-06T02:39:21.300Z,94.29
2023-07-06T02:40:21.278Z,94.40
2023-07-06T02:41:21.334Z,94.40
2023-07-06T02:42:21.251Z,94.50
2023-07-06T02:43:21.244Z,94.50
2023-07-06T02:44:21.267Z,94.29
2023-07-06T02:45:21.216Z,94.34
2023-07-06T02:46:21.340Z,94.34
2023-07-06T02:47:21.205Z,94.34
2023-07-06T02:48:21.186Z,94.54
2023-07-06T02:49:21.174Z,94.54
2023-07-06T02:50:21.213Z,94.54
2023-07-06T02:51:21.165Z,94.54
2023-07-06T02:52:21.137Z,94.54
2023-07-06T02:53:21.136Z,94.64
2023-07-06T02:54:21.101Z,94.64
2023-07-06T02:55:21.079Z,94.64
2023-07-06T02:56:21.085Z,94.64
2023-07-06T02:57:21.069Z,94.74
2023-07-06T02:58:21.036Z,94.74
2023-07-06T02:59:21.036Z,94.74
2023-07-06T03:00:21.027Z,94.74
2023-07-06T03:01:21.046Z,94.74
2023-07-06T03:02:21.033Z,94.74
2023-07-06T03:03:21.019Z,94.74
2023-07-06T03:04:20.949Z,94.85
2023-07-06T03:05:20.972Z,94.74
2023-07-06T03:06:20.949Z,94.89
2023-07-06T03:07:20.948Z,94.79
2023-07-06T03:08:20.920Z,94.69
2023-07-06T03:09:20.914Z,94.69
2023-07-06T03:10:20.941Z,94.69
2023-07-06T03:11:20.874Z,94.69
2023-07-06T03:12:20.920Z,94.59
2023-07-06T03:13:20.877Z,94.69
2023-07-06T03:14:20.826Z,94.69
2023-07-06T03:15:20.823Z,94.69
2023-07-06T03:16:20.853Z,94.79
2023-07-06T03:17:20.836Z,94.89
2023-07-06T03:18:20.790Z,94.89
2023-07-06T03:19:20.783Z,94.89
2023-07-06T03:20:20.892Z,94.89
2023-07-06T03:21:20.743Z,94.79
2023-07-06T03:22:20.719Z,94.89
2023-07-06T03:23:20.748Z,95.00
2023-07-06T03:24:20.707Z,94.89
2023-07-06T03:25:20.730Z,94.79
2023-07-06T03:26:20.759Z,94.79
2023-07-06T03:27:20.715Z,94.79
2023-07-06T03:28:20.670Z,94.89
2023-07-06T03:29:20.641Z,94.89
2023-07-06T03:30:20.649Z,94.79
2023-07-06T03:31:20.665Z,94.84
2023-07-06T03:32:20.665Z,94.84
2023-07-06T03:33:20.667Z,94.84
2023-07-06T03:34:20.574Z,94.84
2023-07-06T03:35:20.590Z,94.93
2023-07-06T03:36:20.571Z,95.00
2023-07-06T03:37:20.558Z,95.00
2023-07-06T03:38:20.520Z,94.93
2023-07-06T03:39:20.578Z,94.93
2023-07-06T03:40:20.494Z,94.93
2023-07-06T03:41:20.541Z,95.00
2023-07-06T03:42:20.507Z,94.89
2023-07-06T03:43:20.589Z,95.04
2023-07-06T03:44:20.471Z,94.93
2023-07-06T03:45:20.453Z,95.04
2023-07-06T03:46:20.525Z,95.04
2023-07-06T03:47:20.445Z,94.89
2023-07-06T03:48:20.441Z,94.93
2023-07-06T03:49:20.405Z,94.93
2023-07-06T03:50:20.376Z,94.93
2023-07-06T03:51:20.366Z,94.89
2023-07-06T03:52:20.340Z,94.84
2023-07-06T03:53:20.339Z,94.93
2023-07-06T03:54:20.331Z,94.93
2023-07-06T03:55:20.349Z,94.89
2023-07-06T03:56:20.298Z,94.93
2023-07-06T03:57:20.281Z,95.00
2023-07-06T03:58:20.288Z,94.93
2023-07-06T03:59:20.272Z,94.93
2023-07-06T04:00:20.292Z,95.00
2023-07-06T04:01:20.297Z,95.09
2023-07-06T04:02:20.209Z,95.00
2023-07-06T04:03:20.242Z,94.89
2023-07-06T04:04:30.440Z,95.00
2023-07-06T04:05:20.193Z,95.00
2023-07-06T04:06:20.179Z,95.09
2023-07-06T04:07:20.165Z,95.09
2023-07-06T04:08:20.140Z,95.20
2023-07-06T04:09:20.133Z,95.20
2023-07-06T04:10:20.127Z,95.20
2023-07-06T04:11:20.196Z,95.00
2023-07-06T04:12:20.089Z,95.00
2023-07-06T04:13:20.105Z,95.00
2023-07-06T04:14:20.055Z,95.20
2023-07-06T04:15:20.069Z,95.09
2023-07-06T04:16:20.169Z,94.89
2023-07-06T04:17:20.045Z,94.69
2023-07-06T04:18:20.018Z,94.79
2023-07-06T04:19:20.007Z,94.79
2023-07-06T04:20:20.262Z,94.69
2023-07-06T04:21:20.008Z,94.59
2023-07-06T04:22:19.956Z,94.69
2023-07-06T04:23:19.951Z,94.79
2023-07-06T04:24:19.949Z,94.79
2023-07-06T04:25:19.922Z,94.79
2023-07-06T04:26:19.927Z,94.69
2023-07-06T04:27:19.942Z,94.59
2023-07-06T04:28:19.879Z,94.59
2023-07-06T04:29:19.867Z,94.69
2023-07-06T04:30:19.853Z,94.59
2023-07-06T04:31:19.878Z,94.48
2023-07-06T04:32:19.859Z,94.48
2023-07-06T04:33:19.868Z,94.38
2023-07-06T04:34:19.799Z,94.38
2023-07-06T04:35:19.826Z,94.48
2023-07-06T04:36:19.794Z,94.48
2023-07-06T04:37:19.767Z,94.34
2023-07-06T04:38:19.759Z,94.38
2023-07-06T04:39:19.760Z,94.44
2023-07-06T04:40:19.725Z,94.18
2023-07-06T04:41:19.745Z,94.13
2023-07-06T04:42:19.693Z,94.38
2023-07-06T04:43:19.705Z,94.34
2023-07-06T04:44:19.677Z,94.34
2023-07-06T04:45:19.684Z,94.34
2023-07-06T04:46:19.728Z,94.44
2023-07-06T04:47:19.641Z,94.44
2023-07-06T04:48:19.662Z,94.44
2023-07-06T04:49:19.651Z,94.54
2023-07-06T04:50:19.626Z,94.34
2023-07-06T04:51:19.639Z,94.44
2023-07-06T04:52:19.567Z,94.34
2023-07-06T04:53:19.585Z,94.24
2023-07-06T04:54:19.554Z,94.13
2023-07-06T04:55:19.531Z,94.13
2023-07-06T04:56:19.530Z,94.04
2023-07-06T04:57:19.511Z,94.04
2023-07-06T04:58:19.523Z,94.13
2023-07-06T04:59:19.520Z,94.13
2023-07-06T05:00:19.488Z,94.13
2023-07-06T05:01:19.484Z,94.13
2023-07-06T05:02:19.447Z,94.13
2023-07-06T05:03:19.517Z,94.13
2023-07-06T05:04:19.408Z,94.24
2023-07-06T05:05:19.402Z,94.24
2023-07-06T05:06:19.399Z,94.24
2023-07-06T05:07:19.412Z,94.24
2023-07-06T05:08:19.404Z,94.24
2023-07-06T05:09:20.237Z,94.34
2023-07-06T05:10:19.334Z,94.34
2023-07-06T05:11:19.324Z,94.34
2023-07-06T05:12:19.328Z,94.34
2023-07-06T05:13:19.350Z,94.44
2023-07-06T05:14:19.289Z,94.54
2023-07-06T05:15:19.276Z,94.44
2023-07-06T05:16:19.274Z,94.24
2023-07-06T05:17:19.290Z,94.34
2023-07-06T05:18:19.247Z,94.29
2023-07-06T05:19:19.219Z,94.40
2023-07-06T05:20:19.219Z,94.50
2023-07-06T05:21:19.208Z,94.50
2023-07-06T05:22:19.384Z,94.40
2023-07-06T05:23:19.203Z,94.40
2023-07-06T05:24:19.192Z,94.29
2023-07-06T05:25:19.209Z,94.20
2023-07-06T05:26:19.135Z,94.29
2023-07-06T05:27:19.112Z,94.40
2023-07-06T05:28:19.166Z,94.40
2023-07-06T05:29:19.102Z,94.50
2023-07-06T05:30:21.966Z,94.60
2023-07-06T05:31:19.159Z,94.70
2023-07-06T05:32:19.067Z,94.60
2023-07-06T05:33:19.183Z,94.70
2023-07-06T05:34:19.027Z,94.70
2023-07-06T05:35:19.097Z,94.60
2023-07-06T05:36:19.799Z,94.40
2023-07-06T05:37:34.021Z,94.40
2023-07-06T05:38:19.964Z,94.29
2023-07-06T05:39:18.967Z,94.29
2023-07-06T05:40:18.970Z,94.09
2023-07-06T05:41:18.937Z,93.89
2023-07-06T05:42:18.963Z,93.89
2023-07-06T05:43:18.913Z,93.54
2023-07-06T05:44:18.951Z,93.13
2023-07-06T05:45:18.892Z,93.24
2023-07-06T05:46:18.970Z,93.33
2023-07-06T05:47:18.932Z,93.64
2023-07-06T05:48:18.872Z,93.44
2023-07-06T05:49:18.843Z,93.13
2023-07-06T05:50:18.843Z,92.93
2023-07-06T05:51:18.806Z,92.83
2023-07-06T05:52:18.797Z,92.12
2023-07-06T05:53:18.798Z,90.53
2023-07-06T05:54:18.783Z,90.29
2023-07-06T05:55:18.758Z,90.70
2023-07-06T05:56:18.743Z,90.90
2023-07-06T05:57:18.727Z,90.70
2023-07-06T05:58:18.738Z,90.39
2023-07-06T05:59:18.703Z,90.09
2023-07-06T06:00:18.713Z,90.39
2023-07-06T06:01:18.672Z,90.66
2023-07-06T06:02:18.889Z,91.16
2023-07-06T06:03:18.671Z,91.36
2023-07-06T06:04:18.698Z,91.67
2023-07-06T06:05:18.623Z,90.05
2023-07-06T06:06:18.622Z,89.74
2023-07-06T06:07:18.595Z,90.35
2023-07-06T06:08:18.596Z,90.35
2023-07-06T06:09:18.561Z,90.45
2023-07-06T06:10:18.587Z,90.55
2023-07-06T06:11:18.571Z,90.86
2023-07-06T06:12:18.533Z,90.96
2023-07-06T06:13:18.544Z,90.45
2023-07-06T06:14:18.545Z,90.05
2023-07-06T06:15:18.510Z,90.05
2023-07-06T06:16:18.553Z,90.25
2023-07-06T06:17:18.500Z,90.25
2023-07-06T06:18:18.486Z,89.43
2023-07-06T06:19:18.466Z,89.19
2023-07-06T06:20:18.431Z,89.19
2023-07-06T06:21:18.406Z,88.48
2023-07-06T06:22:18.415Z,88.99
2023-07-06T06:23:18.402Z,87.67
2023-07-06T06:24:18.411Z,86.65
2023-07-06T06:25:18.369Z,86.51
2023-07-06T06:26:18.364Z,86.82
2023-07-06T06:27:18.489Z,87.43
2023-07-06T06:28:18.372Z,86.61
2023-07-06T06:29:18.635Z,84.69
2023-07-06T06:30:18.385Z,84.08
2023-07-06T06:31:18.310Z,85.46
2023-07-06T06:32:18.346Z,85.66
2023-07-06T06:33:18.254Z,84.95
2023-07-06T06:34:18.275Z,85.36
2023-07-06T06:35:18.293Z,85.21
2023-07-06T06:36:18.254Z,83.90
2023-07-06T06:37:18.199Z,84.00
2023-07-06T06:38:18.191Z,84.61
2023-07-06T06:39:18.229Z,85.42
2023-07-06T06:40:18.180Z,85.82
2023-07-06T06:41:18.161Z,85.88
2023-07-06T06:42:18.164Z,86.59
2023-07-06T06:43:18.128Z,86.49
2023-07-06T06:44:18.192Z,86.59
2023-07-06T06:45:18.256Z,85.88
2023-07-06T06:46:18.176Z,85.24
2023-07-06T06:47:18.150Z,84.93
2023-07-06T06:48:18.176Z,84.42
2023-07-06T06:49:18.059Z,83.31
2023-07-06T06:50:18.435Z,83.82
2023-07-06T06:51:18.051Z,83.51
2023-07-06T06:52:19.886Z,83.41
2023-07-06T06:53:26.119Z,84.02
2023-07-06T06:54:18.207Z,83.92
2023-07-06T06:55:18.160Z,84.59
2023-07-06T06:56:18.343Z,83.27
2023-07-06T06:57:18.083Z,83.17
2023-07-06T06:58:18.059Z,83.37
2023-07-06T06:59:18.085Z,82.53
2023-07-06T07:00:18.033Z,81.92
2023-07-06T07:01:18.135Z,81.92
2023-07-06T07:02:21.053Z,81.62
2023-07-06T07:03:17.959Z,81.71
2023-07-06T07:04:18.200Z,81.01
2023-07-06T07:05:18.104Z,80.71
2023-07-06T07:06:18.193Z,80.60
2023-07-06T07:07:17.967Z,80.50
2023-07-06T07:08:17.868Z,80.80
2023-07-06T07:09:17.972Z,81.37
2023-07-06T07:10:17.893Z,81.57
2023-07-06T07:11:23.715Z,80.77
2023-07-06T07:12:19.996Z,80.77
2023-07-06T07:13:17.902Z,80.77
2023-07-06T07:14:18.620Z,79.96
2023-07-06T07:15:17.930Z,80.16
2023-07-06T07:16:17.946Z,80.97
2023-07-06T07:17:18.948Z,81.07
2023-07-06T07:18:17.844Z,80.77
2023-07-06T07:19:17.977Z,81.37
2023-07-06T07:20:18.455Z,81.03
2023-07-06T07:21:18.199Z,80.73
2023-07-06T07:22:18.796Z,80.12
2023-07-06T07:23:17.932Z,80.53
2023-07-06T07:24:17.771Z,80.69
2023-07-06T07:25:17.817Z,79.99
2023-07-06T07:26:17.737Z,79.99
2023-07-06T07:27:17.780Z,79.38
2023-07-06T07:28:17.816Z,78.37
2023-07-06T07:29:18.151Z,78.27
2023-07-06T07:30:17.653Z,77.46
2023-07-06T07:31:18.237Z,77.97
2023-07-06T07:32:21.798Z,78.47
2023-07-06T07:33:17.739Z,78.47
2023-07-06T07:34:17.550Z,78.77
2023-07-06T07:35:17.456Z,78.63
2023-07-06T07:36:17.455Z,78.74
2023-07-06T07:37:17.505Z,79.14
2023-07-06T07:38:17.515Z,78.63
2023-07-06T07:39:17.412Z,79.24
2023-07-06T07:40:34.011Z,79.24
2023-07-06T07:41:30.625Z,77.73
2023-07-06T07:44:23.790Z,77.69
2023-07-06T07:45:32.782Z,77.28
2023-07-06T07:46:24.478Z,78.39
2023-07-06T07:47:24.329Z,78.39
2023-07-06T07:48:23.629Z,78.16
2023-07-06T07:49:23.698Z,78.36
2023-07-06T07:50:23.892Z,78.26
2023-07-06T07:51:25.287Z,78.26
2023-07-06T07:52:24.021Z,77.45
2023-07-06T07:53:23.597Z,77.04
2023-07-06T07:54:23.849Z,77.04
2023-07-06T07:55:23.567Z,77.04
2023-07-06T07:56:23.636Z,77.15
2023-07-06T07:57:23.913Z,78.12
2023-07-06T07:58:23.757Z,78.12
2023-07-06T07:59:23.590Z,76.71
2023-07-06T08:00:23.514Z,77.01
2023-07-06T08:01:32.269Z,76.61
2023-07-06T08:02:23.473Z,76.31
2023-07-06T08:03:23.473Z,77.21
2023-07-06T08:04:23.718Z,76.31
2023-07-06T08:05:23.554Z,75.60
2023-07-06T08:06:23.845Z,75.50
2023-07-06T08:07:23.495Z,75.46
2023-07-06T08:08:23.343Z,76.47
2023-07-06T08:09:23.350Z,75.56
2023-07-06T08:10:23.591Z,75.67
2023-07-06T08:11:23.423Z,75.16
2023-07-06T08:12:23.332Z,75.76
2023-07-06T08:13:23.303Z,76.97
2023-07-06T08:14:23.253Z,76.97
2023-07-06T08:15:23.261Z,76.67
2023-07-06T08:16:23.353Z,76.67
2023-07-06T08:17:23.230Z,75.73
2023-07-06T08:18:23.182Z,75.13
2023-07-06T08:19:38.720Z,75.53
2023-07-06T08:20:41.687Z,74.22
2023-07-06T08:21:38.284Z,73.52
2023-07-06T08:22:24.147Z,73.28
2023-07-06T08:23:23.184Z,73.38
2023-07-06T08:24:23.146Z,73.38
2023-07-06T08:25:23.128Z,74.49
2023-07-06T08:26:23.100Z,73.98
2023-07-06T08:27:23.606Z,73.38
2023-07-06T08:28:23.042Z,71.16
2023-07-06T08:29:23.051Z,72.44
2023-07-06T08:30:23.017Z,73.95
2023-07-06T08:31:23.073Z,72.84
2023-07-06T08:32:23.466Z,72.24
2023-07-06T08:33:23.000Z,72.64
2023-07-06T08:34:23.013Z,73.24
2023-07-06T08:35:23.545Z,72.54
2023-07-06T08:36:23.031Z,71.03
2023-07-06T08:37:23.011Z,71.43
2023-07-06T08:38:22.979Z,71.63
2023-07-06T08:39:22.973Z,70.23
2023-07-06T08:40:22.979Z,70.46
2023-07-06T08:41:22.892Z,70.76
2023-07-06T08:42:22.922Z,71.16
2023-07-06T08:43:22.911Z,72.34
2023-07-06T08:44:22.834Z,72.34
2023-07-06T08:45:22.863Z,71.53
2023-07-06T08:46:22.842Z,69.42
2023-07-06T08:47:22.841Z,69.92
2023-07-06T08:48:22.784Z,70.23
2023-07-06T08:49:22.802Z,69.69
2023-07-06T08:50:22.794Z,71.09
2023-07-06T08:51:22.766Z,71.09
2023-07-06T08:52:22.744Z,69.89
2023-07-06T08:53:22.854Z,68.88
2023-07-06T08:54:23.103Z,70.26
2023-07-06T08:55:23.936Z,69.45
2023-07-06T08:56:23.117Z,69.65
2023-07-06T08:57:23.341Z,69.25
2023-07-06T08:58:22.730Z,69.65
2023-07-06T08:59:22.717Z,69.45
2023-07-06T09:00:22.850Z,69.76
2023-07-06T09:01:22.963Z,68.35
2023-07-06T09:02:22.763Z,68.95
2023-07-06T09:03:22.726Z,70.26
2023-07-06T09:04:22.600Z,70.06
2023-07-06T09:05:22.584Z,69.85
2023-07-06T09:06:22.610Z,69.56
2023-07-06T09:07:22.540Z,69.45
2023-07-06T09:08:24.041Z,69.72
2023-07-06T09:09:23.079Z,70.23
2023-07-06T09:10:25.767Z,67.82
2023-07-06T09:11:22.571Z,67.91
2023-07-06T09:12:22.525Z,69.12
2023-07-06T09:13:22.541Z,68.52
2023-07-06T09:14:22.444Z,67.71
2023-07-06T09:15:22.437Z,68.32
2023-07-06T09:16:22.450Z,68.68
2023-07-06T09:17:22.511Z,68.29
2023-07-06T09:18:22.437Z,65.97
2023-07-06T09:19:22.383Z,65.27
2023-07-06T09:20:22.376Z,67.68
2023-07-06T09:21:22.354Z,67.01
2023-07-06T09:22:22.355Z,68.02
2023-07-06T09:23:22.397Z,67.91
2023-07-06T09:24:22.305Z,67.11
2023-07-06T09:25:22.308Z,67.11
2023-07-06T09:26:32.920Z,68.62
2023-07-06T09:27:23.415Z,67.51
2023-07-06T09:28:22.282Z,66.91
2023-07-06T09:29:22.295Z,67.21
2023-07-06T09:30:22.235Z,65.41
2023-07-06T09:31:22.463Z,67.18
2023-07-06T09:32:22.245Z,67.48
2023-07-06T09:33:22.223Z,67.68
2023-07-06T09:34:22.223Z,67.68
2023-07-06T09:35:22.256Z,67.58
2023-07-06T09:36:22.197Z,67.68
2023-07-06T09:37:22.177Z,65.37
2023-07-06T09:38:22.132Z,65.97
2023-07-06T09:39:22.146Z,67.58
2023-07-06T09:40:22.140Z,65.37
2023-07-06T09:41:22.098Z,64.87
2023-07-06T09:42:22.086Z,64.54
2023-07-06T09:43:22.096Z,66.35
2023-07-06T09:44:22.048Z,64.87
2023-07-06T09:45:22.057Z,66.85
2023-07-06T09:46:22.055Z,66.55
2023-07-06T09:47:22.050Z,67.25
2023-07-06T09:48:22.013Z,66.85
2023-07-06T09:49:22.007Z,66.85
2023-07-06T09:50:22.047Z,65.24
2023-07-06T09:51:21.988Z,65.94
2023-07-06T09:52:21.973Z,65.47
2023-07-06T09:53:21.945Z,65.88
2023-07-06T09:54:21.923Z,63.96
2023-07-06T09:55:21.943Z,64.47
2023-07-06T09:56:21.890Z,64.47
2023-07-06T09:57:21.879Z,66.98
2023-07-06T09:58:21.917Z,67.18
2023-07-06T09:59:21.874Z,66.24
2023-07-06T10:00:21.975Z,64.04
2023-07-06T10:01:21.857Z,63.53
2023-07-06T10:02:21.815Z,64.54
2023-07-06T10:03:21.813Z,64.54
2023-07-06T10:04:21.806Z,63.64
2023-07-06T10:05:21.872Z,65.11
2023-07-06T10:06:21.765Z,64.91
2023-07-06T10:07:21.772Z,63.50
2023-07-06T10:08:21.731Z,60.80
2023-07-06T10:09:21.744Z,61.30
2023-07-06T10:10:21.920Z,63.40
2023-07-06T10:11:21.694Z,62.17
2023-07-06T10:12:21.679Z,62.17
2023-07-06T10:13:21.705Z,63.57
2023-07-06T10:14:21.670Z,64.45
2023-07-06T10:15:21.670Z,61.17
2023-07-06T10:16:21.657Z,61.67
2023-07-06T10:17:21.616Z,63.78
2023-07-06T10:18:21.608Z,63.07
2023-07-06T10:19:21.586Z,63.45
2023-07-06T10:20:21.584Z,64.15
2023-07-06T10:21:21.562Z,62.84
2023-07-06T10:22:21.540Z,62.84
2023-07-06T10:23:21.607Z,62.64
2023-07-06T10:24:21.523Z,61.97
2023-07-06T10:25:21.528Z,61.90
2023-07-06T10:26:21.508Z,61.50
2023-07-06T10:27:21.528Z,61.60
2023-07-06T10:28:21.586Z,60.80
2023-07-06T10:29:21.470Z,61.19
2023-07-06T10:30:21.438Z,59.89
2023-07-06T10:31:21.466Z,61.87
2023-07-06T10:32:21.418Z,60.16
2023-07-06T10:33:21.425Z,59.77
2023-07-06T10:34:21.401Z,59.16
2023-07-06T10:35:21.384Z,59.74
2023-07-06T10:36:21.395Z,60.84
2023-07-06T10:37:21.381Z,60.84
2023-07-06T10:38:21.346Z,61.61
2023-07-06T10:39:21.342Z,60.71
2023-07-06T10:40:21.307Z,62.01
2023-07-06T10:41:21.302Z,61.91
2023-07-06T10:42:21.282Z,60.21
2023-07-06T10:43:21.302Z,59.70
2023-07-06T10:44:21.307Z,60.88
2023-07-06T10:45:21.240Z,57.17
2023-07-06T10:46:21.249Z,57.87
2023-07-06T10:47:21.270Z,56.87
2023-07-06T10:48:21.198Z,57.98
2023-07-06T10:49:21.214Z,58.98
2023-07-06T10:50:21.207Z,59.08
2023-07-06T10:51:21.168Z,58.45
2023-07-06T10:52:21.168Z,57.75
2023-07-06T10:53:21.136Z,57.65
2023-07-06T10:54:21.169Z,57.75
2023-07-06T10:55:21.141Z,56.65
2023-07-06T10:56:21.103Z,58.45
2023-07-06T10:57:21.098Z,58.15
2023-07-06T10:58:21.064Z,58.05
2023-07-06T10:59:21.079Z,56.65
2023-07-06T11:00:21.050Z,56.05
2023-07-06T11:01:21.150Z,58.35
2023-07-06T11:02:21.054Z,56.22
2023-07-06T11:03:21.138Z,57.15
2023-07-06T11:04:21.010Z,54.85
2023-07-06T11:05:20.984Z,55.67
2023-07-06T11:06:20.979Z,56.48
2023-07-06T11:07:20.963Z,55.35
2023-07-06T11:08:20.982Z,57.05
2023-07-06T11:09:20.952Z,53.94
2023-07-06T11:10:20.932Z,56.32
2023-07-06T11:11:20.914Z,56.12
2023-07-06T11:12:20.912Z,56.32
2023-07-06T11:13:21.017Z,57.59
2023-07-06T11:14:20.894Z,55.09
2023-07-06T11:15:20.876Z,54.69
2023-07-06T11:16:20.866Z,55.29
2023-07-06T11:17:20.868Z,54.19
2023-07-06T11:18:20.809Z,56.49
2023-07-06T11:19:20.814Z,54.10
2023-07-06T11:20:20.806Z,57.09
2023-07-06T11:21:22.697Z,53.79
2023-07-06T11:22:20.769Z,53.49
2023-07-06T11:23:20.746Z,55.19
2023-07-06T11:24:20.954Z,56.39
2023-07-06T11:25:20.760Z,54.39
2023-07-06T11:26:20.996Z,56.20
2023-07-06T11:27:22.054Z,54.90
2023-07-06T11:28:21.029Z,54.19
2023-07-06T11:29:20.705Z,54.90
2023-07-06T11:30:20.672Z,53.99
2023-07-06T11:31:20.692Z,54.99
2023-07-06T11:32:20.644Z,57.19
2023-07-06T11:33:20.597Z,55.99
2023-07-06T11:34:20.605Z,54.37
2023-07-06T11:35:20.632Z,54.57
2023-07-06T11:36:20.577Z,53.37
2023-07-06T11:37:20.588Z,53.47
2023-07-06T11:38:20.584Z,53.67
2023-07-06T11:39:20.963Z,54.67
2023-07-06T11:40:20.598Z,54.06
2023-07-06T11:41:20.509Z,54.57
2023-07-06T11:42:20.503Z,51.87
2023-07-06T11:43:20.496Z,53.37
2023-07-06T11:44:20.505Z,53.37
2023-07-06T11:45:22.109Z,53.37
2023-07-06T11:46:20.584Z,54.06
2023-07-06T11:47:20.545Z,52.77
2023-07-06T11:48:20.429Z,51.67
2023-07-06T11:49:20.435Z,51.27
2023-07-06T11:50:20.401Z,52.47
2023-07-06T11:51:22.901Z,52.07
2023-07-06T11:52:20.384Z,52.37
2023-07-06T11:53:20.387Z,51.67
2023-07-06T11:54:20.382Z,52.87
2023-07-06T11:55:20.399Z,53.27
2023-07-06T11:56:20.367Z,54.37
2023-07-06T11:57:20.321Z,52.47
2023-07-06T11:58:20.332Z,53.07
2023-07-06T11:59:20.388Z,54.54
2023-07-06T12:00:20.414Z,49.47
2023-07-06T12:01:20.276Z,51.37
2023-07-06T12:02:20.272Z,53.07
2023-07-06T12:03:20.312Z,53.47
2023-07-06T12:04:20.247Z,54.17
2023-07-06T12:05:22.103Z,51.77
2023-07-06T12:06:20.193Z,54.17
2023-07-06T12:07:20.198Z,53.64
2023-07-06T12:08:20.173Z,52.74
2023-07-06T12:09:20.182Z,51.94
2023-07-06T12:10:20.161Z,53.17
2023-07-06T12:11:20.117Z,53.67
2023-07-06T12:12:20.123Z,53.17
2023-07-06T12:13:21.838Z,52.97
2023-07-06T12:14:20.108Z,52.67
2023-07-06T12:15:20.077Z,51.87
2023-07-06T12:16:20.088Z,53.27
2023-07-06T12:17:20.047Z,53.57
2023-07-06T12:18:20.058Z,50.35
2023-07-06T12:19:20.013Z,52.25
2023-07-06T12:20:20.001Z,51.45
2023-07-06T12:21:20.040Z,52.32
2023-07-06T12:22:19.983Z,49.15
2023-07-06T12:23:21.435Z,49.35
2023-07-06T12:24:19.972Z,50.74
2023-07-06T12:25:19.958Z,50.45
2023-07-06T12:26:19.940Z,50.74
2023-07-06T12:27:19.916Z,50.24
2023-07-06T12:28:19.927Z,51.54
2023-07-06T12:29:19.896Z,52.52
2023-07-06T12:30:19.898Z,52.12
2023-07-06T12:31:19.888Z,50.32
2023-07-06T12:32:19.856Z,51.82
2023-07-06T12:33:19.879Z,53.61
2023-07-06T12:34:19.844Z,53.79
2023-07-06T12:35:20.038Z,52.89
2023-07-06T12:36:19.833Z,50.30
2023-07-06T12:37:19.812Z,52.00
2023-07-06T12:38:19.784Z,53.79
2023-07-06T12:39:19.749Z,50.72
2023-07-06T12:40:19.746Z,53.12
2023-07-06T12:41:19.793Z,51.02
2023-07-06T12:42:19.716Z,53.42
2023-07-06T12:43:19.707Z,52.52
2023-07-06T12:44:19.698Z,53.81
2023-07-06T12:45:19.701Z,52.12
2023-07-06T12:46:19.778Z,51.42
2023-07-06T12:47:19.756Z,52.42
2023-07-06T12:48:19.657Z,52.49
2023-07-06T12:49:19.618Z,53.19
2023-07-06T12:50:19.663Z,52.29
2023-07-06T12:51:19.603Z,52.19
2023-07-06T12:52:19.586Z,51.77
2023-07-06T12:53:19.566Z,51.89
2023-07-06T12:54:19.572Z,52.19